Latest Weather Observations for Cleve Airport

IDS60801

Issued at 12:35 pm CST Thursday 31 July 2014 (issued every 30 minutes, with the page automatically refreshed every 10 minutes)

About weather observations | Map of weather stations | Latest weather observations for SA | Other Formats
Station Details ID: 018116 Name: CLEVE AERODROME Lat: -33.71 Lon: 136.50 Height: 175.0 m
Data from the previous 72 hours. | See also: Recent months at Cleve Airport
Date/Time
CST
Temp
°C
App
Temp
°C
Dew
Point
Rel
Hum
%
Delta-T
°C
Wind Press
QNH
hPa
Press
MSL
hPa
Rain
since 9 am
mm
Dir
 
Spd
km/h
Gust
km/h
Spd
kts
Gust
kts
31/12:30pm 12.6 6.0 11.5 93 0.6 W 37 50 20 27 1007.9 - 0.2
31/12:17pm 13.3 4.9 11.2 87 1.1 W 46 65 25 35 1007.5 - 0.2
31/12:16pm 13.9 5.1 11.1 83 1.5 W 48 65 26 35 1007.5 - 0.2
31/12:00pm 15.9 8.4 9.6 66 3.3 WNW 39 59 21 32 1006.9 1006.9 0.0
31/11:32am 16.7 8.2 9.1 61 4.0 WNW 44 65 24 35 1007.1 - 0.0
31/11:30am 16.6 8.1 9.3 62 3.8 WNW 44 59 24 32 1007.1 - 0.0
31/11:00am 16.6 8.7 9.3 62 3.8 WNW 41 63 22 34 1007.2 - 0.0
31/10:30am 15.9 7.3 8.2 60 3.9 NW 43 65 23 35 1007.3 - 0.0
31/10:00am 15.3 7.1 8.1 62 3.6 NW 41 61 22 33 1007.5 - 0.0
31/09:30am 14.7 6.7 7.5 62 3.6 NW 39 57 21 31 1007.7 - 0.0
31/09:00am 13.9 6.6 7.4 65 3.2 NW 35 56 19 30 1007.7 1007.8 0.0
31/08:30am 13.3 5.9 6.9 65 3.1 NW 35 56 19 30 1007.8 - 0.0
31/08:00am 13.0 5.1 6.1 63 3.3 NW 37 57 20 31 1007.9 - 0.0
31/07:55am 13.0 5.5 6.1 63 3.3 NW 35 57 19 31 1007.9 - 0.0
31/07:30am 13.1 5.5 6.0 62 3.4 WNW 35 50 19 27 1007.8 - 0.0
31/07:10am 13.0 5.8 5.9 62 3.4 NW 33 52 18 28 1007.8 - 0.0
31/07:00am 13.2 5.6 5.9 61 3.5 NW 35 52 19 28 1007.7 - 0.0
31/06:42am 13.2 5.6 5.9 61 3.5 NW 35 56 19 30 1007.6 - 0.0
31/06:30am 13.1 5.5 6.0 62 3.4 NW 35 48 19 26 1007.5 - 0.0
31/06:00am 13.2 5.6 5.9 61 3.5 NW 35 54 19 29 1007.6 1007.7 0.0
31/05:30am 13.2 5.2 5.9 61 3.5 NW 37 52 20 28 1007.6 - 0.0
31/05:03am 13.5 5.5 5.9 60 3.6 NW 37 56 20 30 1007.8 - 0.0
31/05:00am 13.5 5.5 5.9 60 3.6 NW 37 52 20 28 1007.8 - 0.0
31/04:30am 13.5 6.5 5.9 60 3.6 NW 32 48 17 26 1008.1 - 0.0
31/04:09am 13.1 6.1 6.0 62 3.4 NW 32 50 17 27 1008.4 - 0.0
31/04:00am 13.1 6.1 6.0 62 3.4 NW 32 46 17 25 1008.6 - 0.0
31/03:30am 12.7 5.5 6.1 64 3.1 NW 33 43 18 23 1009.1 - 0.0
31/03:00am 12.7 6.1 6.1 64 3.2 NW 30 43 16 23 1009.6 1009.7 0.0
31/02:30am 12.6 6.8 6.2 65 3.1 NNW 26 35 14 19 1010.1 - 0.0
31/02:00am 12.5 7.1 6.3 66 3.0 NNW 24 37 13 20 1010.6 - 0.0
31/01:30am 12.6 7.2 6.2 65 3.1 NNW 24 33 13 18 1011.0 - 0.0
31/01:00am 12.5 7.1 6.3 66 3.0 NW 24 33 13 18 1011.5 - 0.0
31/12:30am 12.7 7.0 6.5 66 3.0 NW 26 35 14 19 1011.8 - 0.0
31/12:00am 12.6 7.6 6.6 67 2.9 NW 22 32 12 17 1012.4 1012.5 0.0
 
Date/Time
CST
Temp
°C
App
Temp
°C
Dew
Point
Rel
Hum
%
Delta-T
°C
Wind Press
QNH
hPa
Press
MSL
hPa
Rain
since 9 am
mm
Dir
 
Spd
km/h
Gust
km/h
Spd
kts
Gust
kts
30/11:30pm 13.1 7.7 6.5 64 3.2 NW 24 35 13 19 1012.7 - 0.0
30/11:00pm 13.2 8.2 6.5 64 3.2 NW 22 33 12 18 1013.0 - 0.0
30/10:30pm 13.1 7.8 6.7 65 3.1 NW 24 35 13 19 1013.5 - 0.0
30/10:00pm 13.6 8.2 6.5 62 3.4 NW 24 35 13 19 1013.8 - 0.0
30/09:30pm 13.4 8.9 7.0 65 3.1 NW 20 28 11 15 1014.2 - 0.0
30/09:00pm 13.7 9.3 7.2 65 3.2 NW 20 30 11 16 1014.4 1014.5 0.0
30/08:30pm 14.1 9.3 7.4 64 3.3 NW 22 32 12 17 1014.7 - 0.0
30/08:00pm 14.4 8.9 7.7 64 3.3 NW 26 39 14 21 1014.9 - 0.0
30/07:30pm 14.9 9.9 8.2 64 3.4 NW 24 35 13 19 1015.0 - 0.0
30/07:00pm 14.5 10.5 9.1 70 2.8 NW 20 33 11 18 1015.0 - 0.0
30/06:30pm 14.7 10.9 9.1 69 2.9 NW 19 26 10 14 1014.9 - 0.0
30/06:00pm 15.3 11.3 9.2 67 3.2 WNW 20 30 11 16 1014.9 1015.0 0.0
30/05:30pm 16.1 11.8 9.3 64 3.5 WNW 22 32 12 17 1014.9 - 0.0
30/05:00pm 16.4 12.7 10.3 67 3.3 NW 20 30 11 16 1014.9 - 0.0
30/04:30pm 17.1 12.9 9.8 62 3.9 WNW 22 32 12 17 1015.1 - 0.0
30/04:00pm 17.5 12.6 10.1 62 4.0 WNW 26 39 14 21 1015.2 - 0.0
30/03:30pm 17.6 13.3 10.9 65 3.6 WNW 24 35 13 19 1015.4 - 0.0
30/03:00pm 17.4 13.2 11.0 66 3.5 NW 24 33 13 18 1015.7 1015.8 0.0
30/02:30pm 17.6 13.3 10.9 65 3.6 WNW 24 35 13 19 1015.9 - 0.0
30/02:00pm 16.6 12.0 10.9 69 3.1 WNW 26 37 14 20 1016.2 - 0.0
30/01:30pm 16.3 11.4 11.2 72 2.8 NW 28 39 15 21 1016.7 - 0.0
30/01:00pm 16.5 12.1 11.6 73 2.7 NW 26 37 14 20 1017.1 - 0.0
30/12:30pm 16.1 10.9 11.7 75 2.4 NW 30 44 16 24 1017.7 - 0.0
30/12:00pm 16.0 11.2 11.6 75 2.4 NW 28 39 15 21 1018.2 1018.4 0.0
30/11:30am 15.1 10.7 11.7 80 1.8 NW 26 35 14 19 1019.0 - 0.0
30/11:00am 14.8 10.0 11.6 81 1.7 NW 28 41 15 22 1019.3 - 0.0
30/10:30am 14.9 11.0 12.0 83 1.6 NW 24 41 13 22 1019.6 - 0.0
30/10:00am 14.9 11.3 11.9 82 1.6 NW 22 32 12 17 1019.7 - 0.0
30/09:30am 14.4 10.8 11.9 85 1.4 WNW 22 33 12 18 1019.8 - 0.0
30/09:00am 13.4 10.3 12.3 93 0.6 WNW 20 30 11 16 1019.9 1020.0 0.0
30/08:30am 12.8 9.5 11.7 93 0.6 NW 20 28 11 15 1019.8 - 0.0
30/08:00am 12.8 9.6 11.2 90 0.8 NW 19 28 10 15 1019.6 - 0.0
30/07:30am 12.8 9.7 11.7 93 0.6 NW 19 26 10 14 1019.7 - 0.0
30/07:00am 12.7 9.5 11.8 94 0.5 NW 20 30 11 16 1019.5 - 0.0
30/06:30am 12.8 9.5 11.5 92 0.7 NW 20 28 11 15 1019.3 - 0.0
30/06:00am 12.7 9.1 11.8 94 0.5 NNW 22 35 12 19 1018.9 1019.0 0.0
30/05:30am 12.5 9.1 11.4 93 0.6 NW 20 26 11 14 1018.6 - 0.0
30/05:00am 12.8 9.6 11.9 94 0.5 WNW 20 32 11 17 1018.7 - 0.0
30/04:30am 13.0 9.8 11.9 93 0.6 WNW 20 30 11 16 1018.8 - 0.0
30/04:00am 13.1 9.5 11.8 92 0.7 NW 22 32 12 17 1018.8 - 0.0
30/03:30am 13.0 9.3 11.6 91 0.8 WNW 22 32 12 17 1019.0 - 0.0
30/03:00am 12.9 9.3 11.8 93 0.6 WNW 22 28 12 15 1019.2 1019.3 0.0
30/02:30am 13.0 9.1 12.1 94 0.5 WNW 24 35 13 19 1019.5 - 0.0
30/02:00am 12.8 8.5 12.0 95 0.4 WNW 26 35 14 19 1019.7 - 0.0
30/01:30am 13.1 8.8 12.0 93 0.6 WNW 26 37 14 20 1019.9 - 0.0
30/01:00am 13.0 8.7 12.1 94 0.5 WNW 26 41 14 22 1020.0 - 0.0
30/12:30am 13.0 8.7 11.9 93 0.6 WNW 26 35 14 19 1020.0 - 0.0
30/12:00am 12.8 8.7 11.4 91 0.7 WNW 24 35 13 19 1020.0 1020.1 0.0
 
Date/Time
CST
Temp
°C
App
Temp
°C
Dew
Point
Rel
Hum
%
Delta-T
°C
Wind Press
QNH
hPa
Press
MSL
hPa
Rain
since 9 am
mm
Dir
 
Spd
km/h
Gust
km/h
Spd
kts
Gust
kts
29/11:30pm 13.0 8.1 11.2 89 1.0 WNW 28 39 15 21 1020.1 - 0.0
29/11:00pm 13.0 8.0 11.1 88 1.0 WNW 28 37 15 20 1020.2 - 0.0
29/10:30pm 13.0 8.4 10.9 87 1.1 WNW 26 35 14 19 1020.2 - 0.0
29/10:00pm 13.2 8.8 10.4 83 1.5 WNW 24 32 13 17 1020.2 - 0.0
29/09:30pm 13.3 9.1 9.9 80 1.8 WNW 22 33 12 18 1020.1 - 0.0
29/09:00pm 13.3 9.1 9.9 80 1.8 WNW 22 32 12 17 1020.1 1020.2 0.0
29/08:30pm 13.5 9.0 9.9 79 1.9 WNW 24 37 13 20 1020.0 - 0.0
29/08:00pm 13.3 9.6 9.4 77 2.0 WNW 19 24 10 13 1019.9 - 0.0
29/07:30pm 13.3 9.4 8.8 74 2.3 WNW 19 28 10 15 1019.7 - 0.0
29/07:00pm 13.9 10.3 8.5 70 2.7 WNW 17 24 9 13 1019.3 - 0.0
29/06:30pm 14.1 10.6 8.7 70 2.7 W 17 24 9 13 1018.9 - 0.0
29/06:00pm 14.8 10.7 8.7 67 3.1 W 20 28 11 15 1018.2 1018.4 0.0
29/05:30pm 15.7 10.1 8.7 63 3.6 W 28 39 15 21 1017.8 - 0.0
29/05:00pm 16.7 11.5 8.9 60 4.1 WNW 26 39 14 21 1017.7 - 0.0
29/04:30pm 17.3 11.4 9.2 59 4.2 W 30 43 16 23 1017.9 - 0.0
29/04:00pm 17.8 11.9 9.2 57 4.5 W 30 46 16 25 1017.6 - 0.0
29/03:47pm 17.9 11.7 9.3 57 4.5 W 32 50 17 27 1017.5 - 0.0
29/03:30pm 18.2 12.2 10.1 59 4.3 W 32 46 17 25 1017.4 - 0.0
29/03:00pm 18.2 11.5 9.5 57 4.6 WNW 35 57 19 31 1017.3 1017.5 0.0
29/02:33pm 18.4 12.1 9.7 57 4.6 WNW 33 52 18 28 1017.2 - 0.0
29/02:30pm 18.4 12.2 10.0 58 4.5 W 33 50 18 27 1017.3 - 0.0
29/02:00pm 18.5 12.1 10.6 60 4.3 WNW 35 54 19 29 1017.3 - 0.0
29/01:43pm 17.3 11.1 10.2 63 3.8 WNW 33 52 18 28 1017.3 - 0.0
29/01:30pm 17.9 12.1 10.8 63 3.9 WNW 32 48 17 26 1017.3 - 0.0
29/01:00pm 17.0 11.0 10.8 67 3.3 WNW 33 52 18 28 1017.5 - 0.0
29/12:58pm 17.3 11.4 11.1 67 3.4 WNW 33 52 18 28 1017.5 - 0.0
29/12:30pm 16.6 10.9 11.7 73 2.7 WNW 33 46 18 25 1017.8 - 0.0
29/12:00pm 15.7 9.9 11.5 76 2.3 WNW 33 46 18 25 1018.6 1018.7 0.0
29/11:30am 16.1 9.2 11.7 75 2.4 WNW 39 57 21 31 1018.5 - 0.0
29/11:03am 15.6 9.0 11.2 75 2.4 WNW 37 63 20 34 1018.4 - 0.0
29/11:00am 15.7 9.5 11.5 76 2.3 WNW 35 50 19 27 1018.5 - 0.0
29/10:32am 14.7 9.0 11.3 80 1.8 WNW 32 50 17 27 1018.8 - 0.0
29/10:30am 14.7 9.1 11.5 81 1.7 WNW 32 48 17 26 1018.7 - 0.0
29/10:00am 14.3 8.6 11.1 81 1.7 WNW 32 46 17 25 1018.8 - 0.0
29/09:30am 14.0 8.0 10.8 81 1.7 WNW 33 50 18 27 1018.6 - 0.0
29/09:19am 14.0 8.1 10.6 80 1.8 WNW 32 52 17 28 1018.6 - 0.0
29/09:00am 14.0 8.1 10.6 80 1.8 WNW 32 44 17 24 1018.5 1018.6 0.0
29/08:30am 13.6 7.6 10.2 80 1.8 NW 32 46 17 25 1018.2 - 0.0
29/08:00am 13.0 7.8 10.2 83 1.5 NW 28 39 15 21 1018.2 - 0.0
29/07:30am 12.0 7.1 9.9 87 1.1 NW 26 35 14 19 1017.9 - 0.0
29/07:00am 12.0 6.8 10.1 88 1.0 NW 28 41 15 22 1017.7 - 0.0
29/06:30am 12.0 7.1 10.1 88 1.0 NW 26 41 14 22 1017.1 - 0.0
29/06:00am 12.0 7.5 10.1 88 1.0 WNW 24 39 13 21 1017.1 1017.3 0.0
29/05:30am 11.9 6.5 9.6 86 1.2 NW 28 43 15 23 1016.8 - 0.0
29/05:18am 12.2 6.9 9.8 85 1.2 WNW 28 46 15 25 1016.8 - 0.0
29/05:00am 12.1 6.8 9.8 86 1.2 WNW 28 43 15 23 1016.7 - 0.0
29/04:30am 12.6 6.3 9.8 83 1.4 WNW 33 43 18 23 1016.4 - 0.0
29/04:00am 12.0 6.1 9.2 83 1.4 WNW 30 44 16 24 1016.6 - 0.0
29/03:46am 12.0 6.1 9.2 83 1.4 WNW 30 48 16 26 1016.5 - 0.0
29/03:30am 12.1 5.8 8.9 81 1.6 WNW 32 48 17 26 1016.4 - 0.0
29/03:11am 12.4 5.9 8.9 79 1.8 WNW 33 52 18 28 1016.6 - 0.0
29/03:00am 12.4 5.8 8.7 78 1.9 WNW 33 46 18 25 1016.7 1016.8 0.0
29/02:49am 12.6 7.0 8.7 77 2.0 WNW 28 46 15 25 1016.5 - 0.0
29/02:30am 12.2 6.0 7.9 75 2.1 WNW 30 43 16 23 1016.5 - 0.0
29/02:00am 12.7 5.9 7.6 71 2.5 WNW 33 46 18 25 1016.5 - 0.0
29/01:30am 12.7 6.6 6.7 67 2.9 WNW 28 41 15 22 1016.9 - 0.0
29/01:09am 13.1 6.6 6.5 64 3.2 WNW 30 48 16 26 1016.8 - 0.0
29/01:00am 12.8 6.7 6.6 66 3.0 WNW 28 39 15 21 1016.9 - 0.0
29/12:30am 12.9 7.0 6.0 63 3.3 WNW 26 43 14 23 1017.2 - 0.0
29/12:00am 13.0 6.6 5.4 60 3.6 WNW 28 37 15 20 1017.2 1017.4 0.0
 
Date/Time
CST
Temp
°C
App
Temp
°C
Dew
Point
Rel
Hum
%
Delta-T
°C
Wind Press
QNH
hPa
Press
MSL
hPa
Rain
since 9 am
mm
Dir
 
Spd
km/h
Gust
km/h
Spd
kts
Gust
kts
28/11:30pm 12.9 7.2 5.1 59 3.6 WNW 24 41 13 22 1017.6 - 0.0
28/11:00pm 12.9 6.8 4.6 57 3.8 WNW 26 37 14 20 1017.8 - 0.0
28/10:30pm 12.5 6.8 4.7 59 3.6 NW 24 33 13 18 1017.7 - 0.0
28/10:00pm 12.6 7.1 5.8 63 3.2 NW 24 32 13 17 1017.9 - 0.0
28/09:30pm 12.2 7.6 6.7 69 2.6 NW 20 28 11 15 1018.0 - 0.0
28/09:00pm 12.2 7.6 6.3 67 2.8 NW 20 24 11 13 1017.9 1018.1 0.0
28/08:30pm 12.1 7.7 6.6 69 2.6 NW 19 26 10 14 1017.8 - 0.0
28/08:00pm 12.1 7.7 6.6 69 2.6 NW 19 24 10 13 1017.6 - 0.0
28/07:30pm 12.3 8.3 6.8 69 2.7 NW 17 20 9 11 1017.6 - 0.0
28/07:00pm 12.5 8.6 7.2 70 2.6 NW 17 22 9 12 1017.3 - 0.0
28/06:30pm 12.9 9.0 6.9 67 2.9 NW 17 22 9 12 1017.2 - 0.0
28/06:00pm 13.5 9.7 7.5 67 3.0 NW 17 22 9 12 1016.9 1017.1 0.0
28/05:30pm 14.4 10.4 8.1 66 3.2 WNW 19 26 10 14 1016.8 - 0.0
28/05:00pm 15.3 11.4 8.5 64 3.5 WNW 19 26 10 14 1016.8 - 0.0
28/04:30pm 15.8 11.9 8.5 62 3.7 WNW 19 26 10 14 1016.6 - 0.0
28/04:00pm 15.7 11.7 8.4 62 3.7 NW 19 30 10 16 1016.5 - 0.0
28/03:30pm 16.3 11.8 8.5 60 4.0 WNW 22 32 12 17 1016.5 - 0.0
28/03:00pm 16.4 11.5 8.6 60 4.0 WNW 24 32 13 17 1016.7 1016.8 0.0
28/02:30pm 16.5 11.9 8.2 58 4.2 WNW 22 32 12 17 1016.7 - 0.0
28/02:00pm 15.8 11.3 8.5 62 3.7 WNW 22 32 12 17 1016.8 - 0.0
28/01:30pm 15.3 10.1 9.0 66 3.3 WNW 26 39 14 21 1017.3 - 0.0
28/01:00pm 15.4 10.5 11.4 77 2.2 WNW 28 39 15 21 1017.8 - 0.0

Other Formats:

Comma delimited format used in spreadsheet applications
http://www.bom.gov.au/fwo/IDS60801/IDS60801.94662.axf

JavaScript Object Notation format (JSON) in row-major order
http://www.bom.gov.au/fwo/IDS60801/IDS60801.94662.json